Time;durP1;ratioP1;P1;durP2;ratioP2;P2;SDS_P1;SDS_P2;PMS_P1;PMS_P2;Temp;Humidity;BMP_temperature;BMP_pressure;BME280_temperature;BME280_humidity;BME280_pressure;Samples;Min_cycle;Max_cycle;Signal;HPM_P1;HPM_P2
2023/01/09 00:01:33;;;;;;;2.97;0.50;;;;;;;7.60;100.00;99088.28;4929381;29;20043;-78
2023/01/09 00:03:59;;;;;;;1.23;0.40;;;;;;;7.58;100.00;99095.75;4960150;28;20587;-78
2023/01/09 00:06:24;;;;;;;3.58;0.68;;;;;;;7.46;100.00;99087.75;4961660;28;20031;-78
2023/01/09 00:08:49;;;;;;;0.40;0.40;;;;;;;7.43;100.00;99082.59;4888589;29;1212950;-79
2023/01/09 00:11:15;;;;;;;0.55;0.40;;;;;;;7.58;100.00;99090.31;4919173;28;20091;-79
2023/01/09 00:13:40;;;;;;;0.73;0.30;;;;;;;7.41;100.00;99098.22;4970561;28;20035;-78
2023/01/09 00:16:06;;;;;;;1.35;0.40;;;;;;;7.28;100.00;99093.06;4937674;29;20043;-78
2023/01/09 00:18:32;;;;;;;1.50;0.40;;;;;;;7.28;100.00;99092.19;4942247;29;20042;-78
2023/01/09 00:20:59;;;;;;;0.80;0.30;;;;;;;7.35;100.00;99099.66;4912077;28;20035;-78
2023/01/09 00:23:25;;;;;;;0.45;0.30;;;;;;;7.35;100.00;99098.78;4927616;29;20495;-77
2023/01/09 00:26:05;;;;;;;0.30;0.30;;;;;;;7.21;100.00;99091.91;4952725;29;20109;-79
2023/01/09 00:28:32;;;;;;;1.23;0.40;;;;;;;7.11;100.00;99083.75;4940355;29;20031;-79
2023/01/09 00:30:59;;;;;;;0.75;0.50;;;;;;;7.31;100.00;99113.69;4938565;28;20192;-78
2023/01/09 00:33:33;;;;;;;0.30;0.30;;;;;;;7.28;100.00;99108.53;4957845;28;20043;-78
2023/01/09 00:35:59;;;;;;;0.30;0.30;;;;;;;7.25;100.00;99106.97;4951986;29;20089;-78
2023/01/09 00:38:25;;;;;;;1.50;0.40;;;;;;;7.11;100.00;99108.25;4941175;29;20466;-78
2023/01/09 00:40:51;;;;;;;1.27;0.40;;;;;;;7.10;100.00;99108.38;4932160;28;20039;-78
2023/01/09 00:43:18;;;;;;;1.45;0.40;;;;;;;7.07;100.00;99122.31;4957349;28;20131;-78
2023/01/09 00:45:43;;;;;;;0.30;0.30;;;;;;;6.97;100.00;99125.00;4929460;29;20063;-78
2023/01/09 00:48:13;;;;;;;1.85;0.40;;;;;;;7.04;100.00;99123.44;4971500;28;20430;-78
2023/01/09 00:50:39;;;;;;;1.00;0.40;;;;;;;6.96;100.00;99123.28;4952409;29;20038;-78
2023/01/09 00:53:11;;;;;;;1.75;0.50;;;;;;;7.00;100.00;99124.69;4925037;29;20043;-79
2023/01/09 00:55:37;;;;;;;;;;;;;;;6.97;100.00;99133.16;4964222;28;20034;-78
2023/01/09 00:58:03;;;;;;;0.60;0.40;;;;;;;6.81;100.00;99107.34;4955740;29;19915;-79
2023/01/09 01:00:28;;;;;;;3.88;0.80;;;;;;;7.03;100.00;99129.84;4939295;29;20043;-78
2023/01/09 01:02:54;;;;;;;1.58;0.57;;;;;;;6.94;100.00;99134.28;4936850;29;20040;-77
2023/01/09 01:08:15;;;;;;;4.63;0.50;;;;;;;6.92;100.00;99135.44;4950725;29;20044;-77
2023/01/09 01:10:41;;;;;;;2.40;0.40;;;;;;;6.91;100.00;99139.16;4953116;28;20042;-77
2023/01/09 01:13:07;;;;;;;2.85;0.70;;;;;;;6.87;100.00;99141.31;4967403;28;20034;-78
2023/01/09 01:15:33;;;;;;;2.95;0.63;;;;;;;6.91;100.00;99144.59;4955423;28;20043;-77
2023/01/09 01:17:59;;;;;;;1.10;0.50;;;;;;;6.79;100.00;99133.84;4930252;29;20054;-77
2023/01/09 01:20:25;;;;;;;1.25;0.52;;;;;;;6.88;100.00;99140.28;4924011;29;20491;-76
2023/01/09 01:22:50;;;;;;;1.55;0.50;;;;;;;6.81;100.00;99140.00;4924167;29;20043;-78
2023/01/09 01:25:16;;;;;;;2.33;0.60;;;;;;;6.70;100.00;99128.38;4958830;28;20070;-76
2023/01/09 01:27:43;;;;;;;1.95;0.60;;;;;;;6.79;100.00;99136.56;4952027;29;20042;-77
2023/01/09 01:30:10;;;;;;;3.38;0.68;;;;;;;6.71;100.00;99144.56;4938706;29;20499;-76
2023/01/09 01:32:36;;;;;;;1.10;0.43;;;;;;;6.66;100.00;99144.13;4952842;29;20046;-78
2023/01/09 01:35:02;;;;;;;1.30;0.68;;;;;;;6.68;100.00;99135.84;4940559;29;20078;-77
2023/01/09 01:37:29;;;;;;;2.85;1.02;;;;;;;6.59;100.00;99134.78;4934938;28;20067;-78
2023/01/09 01:39:54;;;;;;;2.60;0.80;;;;;;;6.67;100.00;99144.97;4923771;28;20035;-76
2023/01/09 01:42:20;;;;;;;1.85;0.50;;;;;;;6.62;100.00;99154.44;4949655;29;20168;-78
2023/01/09 01:45:09;;;;;;;0.60;0.50;;;;;;;6.67;100.00;99159.44;4940244;29;20031;-77
2023/01/09 01:47:40;;;;;;;3.67;0.68;;;;;;;6.63;100.00;99163.44;4954591;28;20504;-78
2023/01/09 01:50:18;;;;;;;10.60;0.85;;;;;;;6.60;100.00;99163.72;4911104;29;20371;-76
2023/01/09 01:52:50;;;;;;;1.45;0.70;;;;;;;6.66;100.00;99171.31;4958571;28;20065;-76
2023/01/09 01:55:17;;;;;;;6.38;0.98;;;;;;;6.63;100.00;99175.16;4922904;29;20043;-79
2023/01/09 01:57:48;;;;;;;1.42;0.70;;;;;;;6.56;100.00;99170.41;4971979;28;20122;-78
2023/01/09 02:00:14;;;;;;;1.58;0.82;;;;;;;6.34;100.00;99166.88;4958231;28;20027;-76
2023/01/09 02:02:42;;;;;;;4.03;1.05;;;;;;;6.39;100.00;99166.50;4920854;29;20134;-76
2023/01/09 02:05:07;;;;;;;8.65;1.10;;;;;;;6.24;100.00;99144.25;4972577;28;20039;-78
2023/01/09 02:07:33;;;;;;;3.53;1.10;;;;;;;6.36;100.00;99172.19;4928043;28;20070;-77
2023/01/09 02:09:59;;;;;;;4.45;1.00;;;;;;;6.42;100.00;99166.22;4926142;29;20040;-78
2023/01/09 02:12:26;;;;;;;11.95;1.33;;;;;;;6.34;100.00;99171.47;4957522;28;20431;-78
2023/01/09 02:14:57;;;;;;;7.25;1.25;;;;;;;6.29;100.00;99163.72;4942267;29;20059;-77
2023/01/09 02:17:34;;;;;;;7.28;1.25;;;;;;;6.25;100.00;99167.72;4949331;28;20094;-78
2023/01/09 02:20:33;;;;;;;5.55;1.15;;;;;;;6.39;100.00;99163.78;4957442;29;20051;-77
2023/01/09 02:23:36;;;;;;;7.57;1.77;;;;;;;6.39;100.00;99163.78;4963461;28;20035;-77
2023/01/09 02:26:34;;;;;;;6.20;1.92;;;;;;;6.33;100.00;99167.91;4946853;29;20038;-77
2023/01/09 02:29:08;;;;;;;3.72;1.08;;;;;;;6.33;100.00;99167.91;4936854;29;20061;-77
2023/01/09 02:31:52;;;;;;;6.43;1.23;;;;;;;6.31;100.00;99166.31;4961297;29;20046;-77
2023/01/09 02:34:28;;;;;;;8.85;1.48;;;;;;;6.33;100.00;99173.34;4932300;29;20359;-77
2023/01/09 02:37:05;;;;;;;3.28;1.02;;;;;;;6.36;100.00;99170.34;4975836;28;20091;-78
2023/01/09 02:39:55;;;;;;;8.95;1.48;;;;;;;6.32;100.00;99174.34;4935331;29;20027;-77
2023/01/09 02:42:24;;;;;;;5.90;1.27;;;;;;;6.23;100.00;99177.84;4951217;29;20122;-78
2023/01/09 02:44:49;;;;;;;5.60;1.30;;;;;;;6.16;100.00;99177.53;4952658;29;20070;-77
2023/01/09 02:47:15;;;;;;;8.48;1.33;;;;;;;6.24;100.00;99176.88;4939171;29;20114;-77
2023/01/09 02:49:45;;;;;;;5.72;1.50;;;;;;;6.14;100.00;99175.97;4943200;29;20506;-77
2023/01/09 02:52:39;;;;;;;6.05;1.45;;;;;;;6.19;100.00;99170.97;4940086;29;20042;-77
2023/01/09 02:55:23;;;;;;;;;;;;;;;6.16;100.00;99168.53;4969212;28;20035;-78
2023/01/09 02:58:00;;;;;;;4.75;1.38;;;;;;;6.18;100.00;99172.84;4953993;29;19918;-78
2023/01/09 03:00:44;;;;;;;7.60;1.70;;;;;;;6.16;100.00;99171.25;4929740;29;20031;-77
2023/01/09 03:03:17;;;;;;;11.00;1.40;;;;;;;6.14;100.00;99170.53;4943020;29;20139;-77
2023/01/09 03:05:52;;;;;;;12.15;1.77;;;;;;;6.11;100.00;99173.50;4956783;28;20027;-77
2023/01/09 03:08:26;;;;;;;7.25;1.92;;;;;;;6.06;100.00;99160.31;4960220;29;20050;-77
2023/01/09 03:11:05;;;;;;;7.07;1.77;;;;;;;6.11;100.00;99171.66;4951866;28;20459;-78
2023/01/09 03:13:42;;;;;;;3.75;1.65;;;;;;;5.94;100.00;99172.25;4957412;28;20031;-77
2023/01/09 03:16:11;;;;;;;4.72;2.03;;;;;;;5.97;100.00;99159.28;4957219;28;20032;-78
2023/01/09 03:18:38;;;;;;;4.75;1.52;;;;;;;5.98;100.00;99165.56;4973701;28;20094;-78
2023/01/09 03:21:07;;;;;;;5.22;1.52;;;;;;;5.96;100.00;99159.38;4947605;29;20043;-78
2023/01/09 03:23:46;;;;;;;7.97;1.80;;;;;;;6.07;100.00;99159.34;4932047;29;20070;-77
2023/01/09 03:26:12;;;;;;;7.20;1.77;;;;;;;6.02;100.00;99143.44;4959506;29;20430;-78
2023/01/09 03:28:37;;;;;;;5.15;1.70;;;;;;;6.00;100.00;99166.28;4929630;29;20123;-77
2023/01/09 03:31:03;;;;;;;7.55;1.85;;;;;;;5.79;100.00;99131.84;4953194;29;20039;-77
2023/01/09 03:33:28;;;;;;;5.35;1.98;;;;;;;6.01;100.00;99166.16;4956582;29;20050;-77
2023/01/09 03:35:53;;;;;;;3.70;1.80;;;;;;;5.98;100.00;99161.00;4951580;29;20527;-77
2023/01/09 03:38:19;;;;;;;8.82;2.10;;;;;;;5.99;100.00;99161.88;4954586;29;20107;-78
2023/01/09 03:40:44;;;;;;;9.90;1.77;;;;;;;5.96;100.00;99176.56;4928700;28;20039;-77
2023/01/09 03:43:10;;;;;;;8.73;1.70;;;;;;;5.98;100.00;99181.88;4968125;28;20038;-77
2023/01/09 03:45:35;;;;;;;8.38;1.60;;;;;;;5.97;100.00;99183.75;4932627;29;20039;-77
2023/01/09 03:48:01;;;;;;;5.65;1.85;;;;;;;6.00;100.00;99188.03;4940635;29;20474;-77
2023/01/09 03:50:26;;;;;;;6.22;1.95;;;;;;;5.97;100.00;99180.13;4925023;29;20070;-77
2023/01/09 03:52:52;;;;;;;4.63;1.98;;;;;;;5.97;100.00;99180.13;4929769;29;20098;-77
2023/01/09 03:55:17;;;;;;;5.90;1.50;;;;;;;5.92;100.00;99185.09;4962082;28;20544;-77
2023/01/09 03:57:42;;;;;;;6.20;1.30;;;;;;;5.98;100.00;99174.56;4916670;29;20103;-77
2023/01/09 04:00:09;;;;;;;7.45;1.60;;;;;;;6.09;100.00;99176.38;4940532;29;20374;-77
2023/01/09 04:02:34;;;;;;;13.48;1.95;;;;;;;6.03;100.00;99180.50;4926628;29;20050;-77
2023/01/09 04:05:00;;;;;;;3.38;1.15;;;;;;;6.11;100.00;99165.38;4926045;29;20067;-77
2023/01/09 04:07:25;;;;;;;8.23;1.50;;;;;;;6.09;100.00;99173.66;4939331;29;20534;-77
2023/01/09 04:09:51;;;;;;;4.18;1.05;;;;;;;6.06;100.00;99184.78;4938976;29;20035;-77
2023/01/09 04:12:16;;;;;;;6.18;1.42;;;;;;;6.03;100.00;99174.19;4917875;29;20031;-77
2023/01/09 04:14:41;;;;;;;5.75;1.00;;;;;;;6.09;100.00;99186.38;4967794;28;20039;-78
2023/01/09 04:17:07;;;;;;;5.90;1.23;;;;;;;6.17;100.00;99182.00;4940351;29;20027;-78
2023/01/09 04:19:32;;;;;;;10.35;1.00;;;;;;;6.11;100.00;99184.38;4912736;29;20040;-78
2023/01/09 04:21:58;;;;;;;18.33;1.50;;;;;;;6.20;100.00;99178.16;4943847;28;20040;-77
2023/01/09 04:24:23;;;;;;;5.22;1.20;;;;;;;6.28;100.00;99182.88;4954488;28;20067;-77
2023/01/09 04:26:48;;;;;;;15.25;1.88;;;;;;;6.33;100.00;99170.63;4942107;29;20046;-77
2023/01/09 04:29:14;;;;;;;11.73;1.15;;;;;;;6.35;100.00;99174.06;4940771;29;20042;-77
2023/01/09 04:31:39;;;;;;;5.05;1.20;;;;;;;6.40;100.00;99176.38;4961391;28;20082;-77
2023/01/09 04:34:05;;;;;;;10.05;0.85;;;;;;;6.24;100.00;99171.44;4977035;28;20450;-77
2023/01/09 04:36:33;;;;;;;8.48;1.40;;;;;;;6.28;100.00;99175.63;4946904;29;20066;-77
2023/01/09 04:38:59;;;;;;;3.17;1.23;;;;;;;6.31;100.00;99172.59;4951014;29;20034;-77
2023/01/09 04:44:08;;;;;;;4.05;1.30;;;;;;;6.37;100.00;99185.66;4947144;28;20039;-77
2023/01/09 04:46:34;;;;;;;4.90;0.80;;;;;;;6.36;100.00;99180.34;4939785;29;20035;-77
2023/01/09 04:48:59;;;;;;;5.10;1.10;;;;;;;6.39;100.00;99177.38;4938529;29;20130;-77
2023/01/09 04:51:24;;;;;;;8.75;1.48;;;;;;;6.47;100.00;99176.69;4941030;28;20097;-78
2023/01/09 04:53:50;;;;;;;2.60;0.55;;;;;;;6.49;100.00;99171.97;4957200;29;20557;-77
2023/01/09 04:56:15;;;;;;;13.18;1.52;;;;;;;6.62;100.00;99175.31;4933956;29;20520;-77
2023/01/09 04:58:41;;;;;;;10.75;1.23;;;;;;;6.61;100.00;99176.31;4936327;29;20150;-77
2023/01/09 05:01:06;;;;;;;4.18;0.98;;;;;;;6.56;100.00;99175.84;4909211;29;20063;-77
2023/01/09 05:03:31;;;;;;;11.73;0.95;;;;;;;6.63;100.00;99175.16;4939202;29;20043;-77
2023/01/09 05:05:57;;;;;;;5.63;1.42;;;;;;;6.68;100.00;99187.50;4926513;29;20035;-77
2023/01/09 05:08:22;;;;;;;6.10;1.15;;;;;;;6.67;100.00;99188.50;4930535;29;20062;-78
2023/01/09 05:10:48;;;;;;;7.70;0.90;;;;;;;6.71;100.00;99177.19;4920208;29;20057;-77
2023/01/09 05:13:13;;;;;;;5.00;1.48;;;;;;;6.66;100.00;99181.31;4918294;29;20166;-77
2023/01/09 05:15:39;;;;;;;3.85;0.80;;;;;;;6.62;100.00;99184.34;4959774;28;20169;-77
2023/01/09 05:18:04;;;;;;;16.60;1.30;;;;;;;6.76;100.00;99179.50;4947933;28;20095;-77
2023/01/09 05:20:29;;;;;;;10.48;1.45;;;;;;;6.81;100.00;99182.66;4927187;28;20117;-77
2023/01/09 05:22:55;;;;;;;7.63;0.90;;;;;;;6.86;100.00;99184.97;4937685;29;20031;-77
2023/01/09 05:25:20;;;;;;;6.43;0.90;;;;;;;6.79;100.00;99174.66;4953552;29;20059;-78
2023/01/09 05:27:46;;;;;;;4.78;0.70;;;;;;;6.94;100.00;99187.88;4939658;29;20478;-77
2023/01/09 05:30:12;;;;;;;7.25;1.23;;;;;;;6.99;100.00;99191.03;4925657;29;20035;-77
2023/01/09 05:32:38;;;;;;;4.43;0.90;;;;;;;6.99;100.00;99186.44;4920160;28;20474;-77
2023/01/09 05:35:04;;;;;;;14.25;0.88;;;;;;;6.94;100.00;99179.69;4920508;29;20066;-75
2023/01/09 05:37:30;;;;;;;3.85;0.80;;;;;;;6.91;100.00;99196.28;4943272;29;20050;-76
2023/01/09 05:39:55;;;;;;;5.47;1.15;;;;;;;6.97;100.00;99193.03;4910260;28;20406;-76
2023/01/09 05:42:20;;;;;;;10.20;1.13;;;;;;;7.02;100.00;99188.03;4929830;29;20066;-76
2023/01/09 05:44:46;;;;;;;10.65;1.20;;;;;;;7.02;100.00;99177.13;4944958;29;20043;-77
2023/01/09 05:47:11;;;;;;;5.60;1.35;;;;;;;7.09;100.00;99183.72;4939144;28;20038;-76
2023/01/09 05:49:37;;;;;;;8.95;1.20;;;;;;;7.14;100.00;99180.59;4939925;28;20042;-76
2023/01/09 05:52:03;;;;;;;7.00;1.17;;;;;;;7.10;100.00;99184.56;4937011;29;20050;-76
2023/01/09 05:54:29;;;;;;;10.40;1.40;;;;;;;7.08;100.00;99175.69;4942804;28;20039;-77
2023/01/09 05:56:55;;;;;;;8.05;1.10;;;;;;;7.12;100.00;99182.59;4947677;29;20085;-76
2023/01/09 05:59:20;;;;;;;17.58;1.40;;;;;;;7.15;100.00;99185.91;4946157;29;20042;-76
2023/01/09 06:01:46;;;;;;;9.85;1.15;;;;;;;7.23;100.00;99182.47;4945118;29;20054;-76
2023/01/09 06:04:11;;;;;;;9.07;1.30;;;;;;;7.09;100.00;99178.28;4944835;29;20034;-75
2023/01/09 06:06:38;;;;;;;13.35;1.33;;;;;;;6.86;100.00;99174.94;4954515;28;20037;-75
2023/01/09 06:09:04;;;;;;;2.28;0.88;;;;;;;6.99;100.00;99189.16;4967154;28;20035;-76
2023/01/09 06:11:29;;;;;;;7.53;1.08;;;;;;;7.01;100.00;99177.28;4933360;28;20039;-75
2023/01/09 06:13:55;;;;;;;5.68;0.80;;;;;;;7.00;100.00;99181.84;4941521;29;20067;-76
2023/01/09 06:16:20;;;;;;;5.45;1.08;;;;;;;7.06;100.00;99166.81;4951847;28;20045;-76
2023/01/09 06:18:45;;;;;;;7.10;1.20;;;;;;;7.01;100.00;99180.00;4947205;28;20501;-75
2023/01/09 06:21:11;;;;;;;11.45;1.60;;;;;;;6.91;100.00;99169.94;4947898;29;20486;-76
2023/01/09 06:23:36;;;;;;;11.32;1.30;;;;;;;6.96;100.00;99173.09;4957376;28;20410;-75
2023/01/09 06:26:02;;;;;;;12.68;1.42;;;;;;;7.05;100.00;99171.41;4939285;29;20382;-75
2023/01/09 06:28:27;;;;;;;19.02;2.38;;;;;;;6.96;100.00;99164.09;4931437;28;20039;-75
2023/01/09 06:30:53;;;;;;;11.38;1.88;;;;;;;7.13;100.00;99168.84;4950969;28;20146;-75
2023/01/09 06:33:19;;;;;;;10.40;1.45;;;;;;;7.18;100.00;99163.84;4950591;28;20434;-76
2023/01/09 06:35:44;;;;;;;13.18;1.58;;;;;;;7.28;100.00;99168.41;4946489;29;20063;-75
2023/01/09 06:38:11;;;;;;;7.00;1.08;;;;;;;7.23;100.00;99168.88;4939473;29;20459;-76
2023/01/09 06:40:36;;;;;;;6.07;1.05;;;;;;;7.29;100.00;99172.88;4973747;28;20402;-75
2023/01/09 06:43:02;;;;;;;12.23;1.08;;;;;;;7.31;100.00;99171.72;4956775;28;20039;-75
2023/01/09 06:45:27;;;;;;;11.73;1.63;;;;;;;7.21;100.00;99149.06;4926369;29;20070;-75
2023/01/09 06:47:52;;;;;;;10.10;1.33;;;;;;;7.29;100.00;99161.97;4953631;29;20042;-75
2023/01/09 06:50:18;;;;;;;9.65;1.05;;;;;;;7.20;100.00;99147.38;4940050;28;20130;-76
2023/01/09 06:52:43;;;;;;;14.68;1.55;;;;;;;7.32;100.00;99165.25;4971295;28;20043;-75
2023/01/09 06:55:09;;;;;;;8.70;1.00;;;;;;;7.31;100.00;99179.91;4945299;28;20078;-75
2023/01/09 06:57:34;;;;;;;7.97;1.35;;;;;;;7.35;100.00;99175.03;4946640;29;20050;-76
2023/01/09 07:00:00;;;;;;;7.82;1.20;;;;;;;7.35;100.00;99161.41;4942991;28;20070;-75
2023/01/09 07:02:25;;;;;;;16.55;2.17;;;;;;;7.41;100.00;99174.47;4947411;28;20043;-76
2023/01/09 07:04:51;;;;;;;8.95;1.00;;;;;;;7.45;100.00;99169.59;4948158;28;20066;-77
2023/01/09 07:07:18;;;;;;;8.35;1.52;;;;;;;7.39;100.00;99168.28;4950367;29;20031;-76
2023/01/09 07:09:43;;;;;;;17.02;1.45;;;;;;;7.46;100.00;99174.00;4955877;28;20031;-76
2023/01/09 07:12:09;;;;;;;12.85;1.42;;;;;;;7.43;100.00;99172.44;4924366;29;20471;-75
2023/01/09 07:14:34;;;;;;;8.60;1.30;;;;;;;7.45;100.00;99184.03;4954857;28;20081;-75
2023/01/09 07:16:59;;;;;;;11.25;1.13;;;;;;;7.49;100.00;99188.22;4939528;28;20409;-76
2023/01/09 07:19:25;;;;;;;9.23;1.10;;;;;;;7.51;100.00;99188.94;4948445;29;20071;-75
2023/01/09 07:21:50;;;;;;;8.18;1.38;;;;;;;7.56;100.00;99191.22;4920658;29;20054;-76
2023/01/09 07:24:16;;;;;;;15.77;2.05;;;;;;;7.63;100.00;99191.50;4931864;28;20410;-77
2023/01/09 07:26:41;;;;;;;12.30;1.20;;;;;;;7.68;100.00;99192.78;4952316;29;20371;-75
2023/01/09 07:29:06;;;;;;;8.32;1.20;;;;;;;7.57;100.00;99184.75;4925560;28;20031;-75
2023/01/09 07:31:32;;;;;;;6.45;1.20;;;;;;;7.59;100.00;99192.78;4930319;29;20539;-75
2023/01/09 07:33:57;;;;;;;12.50;1.25;;;;;;;7.63;100.00;99192.34;4927629;29;20039;-75
2023/01/09 07:36:23;;;;;;;11.07;1.65;;;;;;;7.64;100.00;99190.47;4954411;28;20047;-76
2023/01/09 07:38:48;;;;;;;6.85;1.20;;;;;;;7.63;100.00;99197.81;4936067;29;20035;-75
2023/01/09 07:41:14;;;;;;;7.95;2.13;;;;;;;7.66;100.00;99194.81;4933865;29;20487;-75
2023/01/09 07:43:39;;;;;;;10.23;1.05;;;;;;;7.58;100.00;99188.34;4910626;28;20077;-76
2023/01/09 07:46:05;;;;;;;8.93;2.17;;;;;;;7.59;100.00;99207.28;4950740;29;20043;-76
2023/01/09 07:48:31;;;;;;;11.20;1.60;;;;;;;7.54;100.00;99218.59;4956317;28;20532;-76
2023/01/09 07:50:56;;;;;;;11.55;1.27;;;;;;;7.55;100.00;99214.00;4945772;29;20160;-76
2023/01/09 07:53:22;;;;;;;13.57;1.75;;;;;;;7.56;100.00;99221.19;4927660;29;20118;-75
2023/01/09 07:55:47;;;;;;;10.18;1.77;;;;;;;7.52;100.00;99212.41;4932594;28;20499;-76
2023/01/09 07:58:13;;;;;;;15.57;1.65;;;;;;;7.66;100.00;99213.00;4964107;28;20109;-76
2023/01/09 08:00:38;;;;;;;6.57;1.20;;;;;;;7.76;100.00;99221.19;4958653;28;20039;-75
2023/01/09 08:03:03;;;;;;;15.13;1.90;;;;;;;7.77;100.00;99217.44;4936000;29;20074;-75
2023/01/09 08:05:29;;;;;;;6.05;1.10;;;;;;;7.82;100.00;99226.91;4935693;29;20043;-76
2023/01/09 08:07:54;;;;;;;9.38;1.38;;;;;;;7.89;100.00;99236.22;4926486;29;20502;-75
2023/01/09 08:10:20;;;;;;;8.05;1.70;;;;;;;7.77;100.00;99234.63;4936050;29;20091;-75
2023/01/09 08:12:46;;;;;;;13.65;1.98;;;;;;;7.74;100.00;99248.56;4922677;28;20844;-74
2023/01/09 08:15:12;;;;;;;10.63;1.77;;;;;;;7.72;100.00;99248.72;4959470;28;20058;-75
2023/01/09 08:17:43;;;;;;;19.52;2.47;;;;;;;7.75;100.00;99253.00;4936804;28;20028;-75
2023/01/09 08:20:10;;;;;;;7.40;1.73;;;;;;;7.70;100.00;99255.28;4929337;29;21940;-75
2023/01/09 08:22:36;;;;;;;12.75;1.60;;;;;;;7.67;100.00;99261.91;4954641;28;20042;-75
2023/01/09 08:25:01;;;;;;;10.00;1.98;;;;;;;7.70;100.00;99264.31;4934109;29;20035;-75
2023/01/09 08:27:27;;;;;;;19.30;2.05;;;;;;;7.69;100.00;99272.63;4947999;28;20035;-75
2023/01/09 08:29:52;;;;;;;11.55;1.52;;;;;;;7.69;100.00;99276.25;4948580;28;20071;-76
2023/01/09 08:32:18;;;;;;;11.20;1.80;;;;;;;7.72;100.00;99275.94;4924847;29;20390;-75
2023/01/09 08:34:43;;;;;;;9.07;1.27;;;;;;;7.78;100.00;99279.09;4947397;29;20047;-76
2023/01/09 08:37:09;;;;;;;12.88;2.15;;;;;;;7.79;100.00;99286.25;4929951;29;20043;-75
2023/01/09 08:39:35;;;;;;;4.97;1.42;;;;;;;7.75;100.00;99290.28;4937667;28;20039;-80
2023/01/09 08:47:32;;;;;;;7.07;1.63;;;;;;;7.75;100.00;99296.59;4925236;28;20035;-76
2023/01/09 08:49:58;;;;;;;10.30;1.40;;;;;;;7.77;100.00;99305.47;4945304;29;20050;-76
2023/01/09 08:52:23;;;;;;;10.05;1.65;;;;;;;7.90;100.00;99307.91;4933472;29;20039;-75
2023/01/09 08:54:49;;;;;;;8.25;1.60;;;;;;;7.79;100.00;99303.50;4951971;28;20067;-75
2023/01/09 08:57:14;;;;;;;8.43;1.52;;;;;;;7.95;100.00;99316.53;4955837;28;20035;-75
2023/01/09 08:59:40;;;;;;;5.22;1.85;;;;;;;7.94;100.00;99314.81;4961903;28;20134;-75
2023/01/09 09:02:05;;;;;;;6.68;1.60;;;;;;;8.00;100.00;99319.72;4954795;28;20504;-75
2023/01/09 09:04:31;;;;;;;5.78;1.25;;;;;;;8.07;100.00;99330.91;4940418;29;20043;-74
2023/01/09 09:06:56;;;;;;;10.82;1.10;;;;;;;8.22;100.00;99334.91;4952127;28;20103;-74
2023/01/09 09:09:21;;;;;;;6.22;1.17;;;;;;;8.13;100.00;99329.44;4949937;28;20051;-75
2023/01/09 09:11:47;;;;;;;5.88;1.15;;;;;;;8.19;100.00;99343.38;4951617;29;20035;-74
2023/01/09 09:16:56;;;;;;;9.20;0.90;;;;;;;8.36;100.00;99344.53;4935274;29;20084;-75
2023/01/09 09:19:22;;;;;;;10.57;1.20;;;;;;;8.28;100.00;99361.59;4958593;28;20517;-75
2023/01/09 09:21:47;;;;;;;28.20;1.42;;;;;;;8.20;100.00;99363.28;4934366;29;20039;-75
2023/01/09 09:24:12;;;;;;;6.80;1.17;;;;;;;8.25;100.00;99367.34;4946127;28;20057;-76
2023/01/09 09:26:38;;;;;;;6.70;1.00;;;;;;;8.26;100.00;99377.25;4936270;28;20066;-74
2023/01/09 09:29:03;;;;;;;5.25;0.90;;;;;;;8.27;100.00;99380.81;4946411;28;20040;-74
2023/01/09 09:31:29;;;;;;;7.93;1.13;;;;;;;8.09;100.00;99378.78;4949904;28;20040;-75
2023/01/09 09:33:55;;;;;;;9.00;0.90;;;;;;;7.99;100.00;99393.44;4953440;28;20035;-75
2023/01/09 09:36:21;;;;;;;7.68;1.02;;;;;;;7.98;100.00;99391.69;4932351;28;20043;-76
2023/01/09 09:38:46;;;;;;;9.32;1.30;;;;;;;8.17;100.00;99391.72;4933041;28;20126;-75
2023/01/09 09:44:52;;;;;;;5.47;1.58;;;;;;;7.96;100.00;99405.47;4954325;28;20640;-76
2023/01/09 09:47:44;;;;;;;3.42;1.20;;;;;;;7.92;100.00;99409.50;4942114;28;20052;-78
2023/01/09 09:50:17;;;;;;;3.97;0.82;;;;;;;7.80;100.00;99413.31;4938651;28;20062;-75
2023/01/09 09:52:54;;;;;;;7.13;1.08;;;;;;;7.80;100.00;99414.16;4943275;29;20082;-76
2023/01/09 09:55:31;;;;;;;8.60;1.13;;;;;;;7.84;100.00;99420.22;4938718;29;20091;-76
2023/01/09 09:58:00;;;;;;;4.50;0.95;;;;;;;7.87;100.00;99431.72;4953902;28;20477;-77
2023/01/09 10:00:25;;;;;;;4.00;1.25;;;;;;;7.84;100.00;99448.34;4940816;29;20032;-75
2023/01/09 10:02:57;;;;;;;5.22;1.25;;;;;;;7.68;100.00;99446.13;4935213;28;20497;-78
2023/01/09 10:05:36;;;;;;;9.18;1.80;;;;;;;7.60;100.00;99450.53;4950964;28;20031;-76
2023/01/09 10:08:49;;;;;;;9.07;1.08;;;;;;;7.68;100.00;99451.56;4944353;28;20039;-76
2023/01/09 10:11:21;;;;;;;10.37;1.50;;;;;;;7.69;100.00;99450.59;4902666;29;20087;-75
2023/01/09 10:14:05;;;;;;;10.00;1.97;;;;;;;7.63;100.00;99459.28;4951982;28;20062;-75
2023/01/09 10:16:39;;;;;;;10.93;1.30;;;;;;;7.72;100.00;99473.94;4934425;29;20317;-75
2023/01/09 10:19:04;;;;;;;7.45;1.85;;;;;;;7.68;100.00;99472.50;4953692;28;20027;-75
2023/01/09 10:21:44;;;;;;;5.03;1.40;;;;;;;7.73;100.00;99471.09;4927483;29;20044;-75
2023/01/09 10:24:27;;;;;;;9.73;1.70;;;;;;;7.90;100.00;99476.88;4950792;28;20038;-75
2023/01/09 10:26:53;;;;;;;9.88;1.77;;;;;;;7.96;100.00;99476.31;4950405;29;20035;-75
2023/01/09 10:29:47;;;;;;;6.68;1.13;;;;;;;7.96;100.00;99475.47;4947784;28;20035;-76
2023/01/09 10:32:24;;;;;;;8.82;1.48;;;;;;;8.02;100.00;99475.78;4945580;29;20042;-74
2023/01/09 10:34:58;;;;;;;9.95;1.77;;;;;;;7.90;100.00;99490.50;4953382;28;20031;-75
2023/01/09 10:37:36;;;;;;;14.07;2.00;;;;;;;7.94;100.00;99488.38;4956827;28;20130;-74
2023/01/09 10:40:39;;;;;;;4.35;1.85;;;;;;;7.86;100.00;99492.66;4941794;28;20041;-74
2023/01/09 10:43:29;;;;;;;8.80;1.30;;;;;;;7.99;100.00;99492.41;4951044;29;20039;-75
2023/01/09 10:46:00;;;;;;;4.32;1.48;;;;;;;8.03;100.00;99491.13;4950035;29;20039;-74
2023/01/09 10:48:37;;;;;;;5.82;1.40;;;;;;;8.03;100.00;99492.97;4925123;29;20034;-74
2023/01/09 10:51:26;;;;;;;3.92;1.30;;;;;;;8.16;100.00;99495.47;4961334;28;20031;-74
2023/01/09 10:53:54;;;;;;;10.52;1.85;;;;;;;8.06;100.00;99500.88;4957537;28;20110;-74
2023/01/09 10:56:22;;;;;;;9.27;1.40;;;;;;;8.13;100.00;99509.38;4939137;28;20082;-74
2023/01/09 10:58:47;;;;;;;8.23;1.20;;;;;;;8.03;100.00;99507.47;4935029;29;20027;-74
2023/01/09 11:01:13;;;;;;;14.35;1.80;;;;;;;8.12;100.00;99508.50;4938045;28;20038;-76
2023/01/09 11:03:39;;;;;;;4.78;1.50;;;;;;;8.03;100.00;99506.63;4947326;28;20031;-76
2023/01/09 11:06:20;;;;;;;9.63;2.70;;;;;;;8.10;100.00;99515.97;4941147;28;20482;-75
2023/01/09 11:08:49;;;;;;;9.75;1.52;;;;;;;7.97;100.00;99508.03;4956330;28;20047;-75
2023/01/09 11:11:34;;;;;;;7.20;1.70;;;;;;;8.09;100.00;99516.97;4942028;28;20070;-75
2023/01/09 11:14:07;;;;;;;36.95;14.50;;;;;;;8.16;100.00;99509.09;4943256;29;20442;-77
2023/01/09 11:16:33;;;;;;;9.70;1.90;;;;;;;8.06;100.00;99523.53;4933001;29;20042;-76
2023/01/09 11:19:00;;;;;;;11.88;2.08;;;;;;;8.08;100.00;99518.84;4936771;29;20039;-75
2023/01/09 11:21:46;;;;;;;8.02;1.60;;;;;;;8.21;100.00;99515.84;4957149;28;20454;-75
2023/01/09 11:24:17;;;;;;;9.60;2.30;;;;;;;8.10;100.00;99516.84;4954654;28;20435;-74
2023/01/09 11:26:46;;;;;;;6.18;2.03;;;;;;;8.14;100.00;99519.28;4944168;28;20046;-76
2023/01/09 11:29:13;;;;;;;13.48;2.13;;;;;;;8.40;100.00;99522.34;4956362;29;20031;-75
2023/01/09 11:31:41;;;;;;;11.63;2.35;;;;;;;8.59;100.00;99519.69;4949418;28;20035;-74
2023/01/09 11:34:18;;;;;;;10.55;1.90;;;;;;;8.65;100.00;99530.00;4953604;28;20098;-74
2023/01/09 11:36:45;;;;;;;9.55;1.90;;;;;;;8.63;100.00;99532.03;4955850;29;20036;-74
2023/01/09 11:39:23;;;;;;;5.88;1.70;;;;;;;8.72;100.00;99543.94;4951141;28;20039;-75
2023/01/09 11:41:54;;;;;;;9.98;2.10;;;;;;;8.50;100.00;99534.16;4951050;28;20114;-75
2023/01/09 11:44:20;;;;;;;8.13;2.03;;;;;;;8.58;100.00;99537.06;4949874;28;20038;-74
2023/01/09 11:46:46;;;;;;;10.23;2.25;;;;;;;8.54;100.00;99535.59;4935938;28;20031;-74
2023/01/09 11:49:12;;;;;;;7.43;1.92;;;;;;;8.63;100.00;99545.69;4960573;28;20107;-74
2023/01/09 11:51:38;;;;;;;8.27;1.83;;;;;;;8.65;100.00;99540.06;4964530;28;20435;-75
2023/01/09 11:54:27;;;;;;;10.48;1.83;;;;;;;8.59;100.00;99541.53;4941275;28;20035;-76
2023/01/09 11:56:54;;;;;;;10.27;1.88;;;;;;;8.63;100.00;99545.69;4949905;28;20043;-75